sensor_id;sensor_type;location;lat;lon;timestamp;pressure;altitude;pressure_sealevel;temperature;humidity
2401;BME280;1211;43.200;27.914;2023-02-22T08:46:02;101110.53;;;23.09;nan
2401;BME280;1211;43.200;27.914;2023-02-22T08:48:29;101108.03;;;23.39;nan
2401;BME280;1211;43.200;27.914;2023-02-22T08:50:55;101097.44;;;23.86;nan
2401;BME280;1211;43.200;27.914;2023-02-22T08:53:22;101097.69;;;24.16;nan
2401;BME280;1211;43.200;27.914;2023-02-22T08:55:49;101098.97;;;24.04;nan
2401;BME280;1211;43.200;27.914;2023-02-22T08:58:16;101117.44;;;24.09;nan
2401;BME280;1211;43.200;27.914;2023-02-22T09:00:42;101121.00;;;22.97;nan
2401;BME280;1211;43.200;27.914;2023-02-22T09:03:12;101110.47;;;22.31;nan
2401;BME280;1211;43.200;27.914;2023-02-22T09:05:39;101140.97;;;23.60;nan
2401;BME280;1211;43.200;27.914;2023-02-22T09:08:06;101120.38;;;23.88;nan
2401;BME280;1211;43.200;27.914;2023-02-22T09:10:33;101111.28;;;23.37;nan
2401;BME280;1211;43.200;27.914;2023-02-22T09:13:00;101125.81;;;22.72;nan
2401;BME280;1211;43.200;27.914;2023-02-22T09:15:42;101129.38;;;23.12;nan
2401;BME280;1211;43.200;27.914;2023-02-22T09:18:09;101119.00;;;21.48;nan
2401;BME280;1211;43.200;27.914;2023-02-22T09:20:40;101118.03;;;19.64;nan
2401;BME280;1211;43.200;27.914;2023-02-22T09:23:08;101119.50;;;19.02;nan
2401;BME280;1211;43.200;27.914;2023-02-22T09:25:35;101124.56;;;17.86;nan
2401;BME280;1211;43.200;27.914;2023-02-22T09:28:03;101123.53;;;17.20;nan
2401;BME280;1211;43.200;27.914;2023-02-22T09:30:30;101119.34;;;16.95;nan
2401;BME280;1211;43.200;27.914;2023-02-22T09:32:57;101125.97;;;17.06;nan
2401;BME280;1211;43.200;27.914;2023-02-22T09:35:24;101122.22;;;16.83;nan
2401;BME280;1211;43.200;27.914;2023-02-22T09:37:54;101138.91;;;16.52;nan
2401;BME280;1211;43.200;27.914;2023-02-22T09:40:22;101125.47;;;16.10;nan
2401;BME280;1211;43.200;27.914;2023-02-22T09:43:16;101115.56;;;16.40;nan
2401;BME280;1211;43.200;27.914;2023-02-22T09:45:47;101119.47;;;16.67;nan
2401;BME280;1211;43.200;27.914;2023-02-22T09:48:16;101129.59;;;16.91;nan
2401;BME280;1211;43.200;27.914;2023-02-22T09:50:44;101125.56;;;16.73;nan
2401;BME280;1211;43.200;27.914;2023-02-22T09:53:16;101127.06;;;16.55;nan
2401;BME280;1211;43.200;27.914;2023-02-22T09:55:53;101135.63;;;16.18;nan
2401;BME280;1211;43.200;27.914;2023-02-22T09:58:23;101130.31;;;16.13;nan
2401;BME280;1211;43.200;27.914;2023-02-22T10:00:51;101111.78;;;16.17;nan
2401;BME280;1211;43.200;27.914;2023-02-22T10:03:24;101132.19;;;16.09;nan
2401;BME280;1211;43.200;27.914;2023-02-22T10:05:53;101111.19;;;17.02;nan
2401;BME280;1211;43.200;27.914;2023-02-22T10:08:27;101107.78;;;18.01;nan
2401;BME280;1211;43.200;27.914;2023-02-22T10:10:56;101115.94;;;18.78;nan
2401;BME280;1211;43.200;27.914;2023-02-22T10:13:33;101086.84;;;17.92;nan
2401;BME280;1211;43.200;27.914;2023-02-22T10:16:04;101099.16;;;19.27;nan
2401;BME280;1211;43.200;27.914;2023-02-22T10:21:34;101089.50;;;20.55;nan
2401;BME280;1211;43.200;27.914;2023-02-22T10:24:10;101082.25;;;21.77;nan
2401;BME280;1211;43.200;27.914;2023-02-22T10:26:42;101078.75;;;20.61;nan
2401;BME280;1211;43.200;27.914;2023-02-22T10:29:10;101081.91;;;21.14;nan
2401;BME280;1211;43.200;27.914;2023-02-22T10:31:42;101086.44;;;22.47;nan
2401;BME280;1211;43.200;27.914;2023-02-22T10:34:11;101084.75;;;20.22;nan
2401;BME280;1211;43.200;27.914;2023-02-22T10:36:40;101086.09;;;20.35;nan
2401;BME280;1211;43.200;27.914;2023-02-22T10:39:12;101068.50;;;20.35;nan
2401;BME280;1211;43.200;27.914;2023-02-22T10:41:43;101071.09;;;19.47;nan
2401;BME280;1211;43.200;27.914;2023-02-22T10:44:14;101067.72;;;19.34;nan
2401;BME280;1211;43.200;27.914;2023-02-22T10:46:41;101068.28;;;19.17;nan
2401;BME280;1211;43.200;27.914;2023-02-22T10:49:09;101064.00;;;18.70;nan
2401;BME280;1211;43.200;27.914;2023-02-22T10:51:36;101053.16;;;18.20;nan
2401;BME280;1211;43.200;27.914;2023-02-22T10:54:13;101045.56;;;18.20;nan
2401;BME280;1211;43.200;27.914;2023-02-22T10:56:47;101055.34;;;17.88;nan
2401;BME280;1211;43.200;27.914;2023-02-22T10:59:26;101070.81;;;17.27;nan
2401;BME280;1211;43.200;27.914;2023-02-22T11:01:53;101063.44;;;16.84;nan
2401;BME280;1211;43.200;27.914;2023-02-22T11:04:20;101051.91;;;16.67;nan
2401;BME280;1211;43.200;27.914;2023-02-22T11:06:48;101058.97;;;16.48;nan
2401;BME280;1211;43.200;27.914;2023-02-22T11:09:17;101055.75;;;16.78;nan
2401;BME280;1211;43.200;27.914;2023-02-22T11:11:49;101053.94;;;16.85;nan
2401;BME280;1211;43.200;27.914;2023-02-22T11:14:23;101058.53;;;16.78;nan
2401;BME280;1211;43.200;27.914;2023-02-22T11:16:51;101055.13;;;16.37;nan
2401;BME280;1211;43.200;27.914;2023-02-22T11:19:20;101062.47;;;16.45;nan
2401;BME280;1211;43.200;27.914;2023-02-22T11:21:48;101060.25;;;16.51;nan
2401;BME280;1211;43.200;27.914;2023-02-22T11:24:25;101061.94;;;16.56;nan
2401;BME280;1211;43.200;27.914;2023-02-22T11:26:55;101056.09;;;16.45;nan
2401;BME280;1211;43.200;27.914;2023-02-22T11:29:24;101062.03;;;16.28;nan
2401;BME280;1211;43.200;27.914;2023-02-22T11:31:52;101058.00;;;16.41;nan
2401;BME280;1211;43.200;27.914;2023-02-22T11:34:24;101056.34;;;16.24;nan
2401;BME280;1211;43.200;27.914;2023-02-22T11:36:51;101067.50;;;16.40;nan
2401;BME280;1211;43.200;27.914;2023-02-22T11:39:22;101047.94;;;16.05;nan
2401;BME280;1211;43.200;27.914;2023-02-22T11:41:49;101066.72;;;15.52;nan
2401;BME280;1211;43.200;27.914;2023-02-22T11:44:25;101064.41;;;15.42;nan
2401;BME280;1211;43.200;27.914;2023-02-22T11:46:53;101062.44;;;15.55;nan
2401;BME280;1211;43.200;27.914;2023-02-22T11:49:22;101064.75;;;15.53;nan
2401;BME280;1211;43.200;27.914;2023-02-22T11:51:53;101072.06;;;15.21;nan
2401;BME280;1211;43.200;27.914;2023-02-22T11:54:35;101086.94;;;15.01;nan
2401;BME280;1211;43.200;27.914;2023-02-22T11:57:11;101085.78;;;14.77;nan
2401;BME280;1211;43.200;27.914;2023-02-22T11:59:44;101080.47;;;14.72;nan
2401;BME280;1211;43.200;27.914;2023-02-22T12:02:22;101076.75;;;15.05;nan
2401;BME280;1211;43.200;27.914;2023-02-22T12:04:54;101077.91;;;14.92;nan
2401;BME280;1211;43.200;27.914;2023-02-22T12:07:30;101071.91;;;14.77;nan
2401;BME280;1211;43.200;27.914;2023-02-22T12:10:04;101074.91;;;14.48;nan
2401;BME280;1211;43.200;27.914;2023-02-22T12:12:36;101064.59;;;14.36;nan
2401;BME280;1211;43.200;27.914;2023-02-22T12:15:08;101081.53;;;14.11;nan
2401;BME280;1211;43.200;27.914;2023-02-22T12:17:43;101067.88;;;14.38;nan
2401;BME280;1211;43.200;27.914;2023-02-22T12:20:14;101077.22;;;14.46;nan
2401;BME280;1211;43.200;27.914;2023-02-22T12:22:47;101076.53;;;14.37;nan
2401;BME280;1211;43.200;27.914;2023-02-22T12:25:19;101085.72;;;14.29;nan
2401;BME280;1211;43.200;27.914;2023-02-22T12:27:47;101079.44;;;14.08;nan
2401;BME280;1211;43.200;27.914;2023-02-22T12:30:19;101078.66;;;14.19;nan
2401;BME280;1211;43.200;27.914;2023-02-22T12:32:49;101083.38;;;14.19;nan
2401;BME280;1211;43.200;27.914;2023-02-22T12:35:18;101063.09;;;14.27;nan
2401;BME280;1211;43.200;27.914;2023-02-22T12:37:51;101081.53;;;14.23;nan
2401;BME280;1211;43.200;27.914;2023-02-22T12:40:19;101083.19;;;14.36;nan
2401;BME280;1211;43.200;27.914;2023-02-22T12:42:52;101080.06;;;14.25;nan
2401;BME280;1211;43.200;27.914;2023-02-22T12:45:25;101085.88;;;13.99;nan
2401;BME280;1211;43.200;27.914;2023-02-22T12:47:54;101104.03;;;13.76;nan
2401;BME280;1211;43.200;27.914;2023-02-22T12:50:26;101107.25;;;13.78;nan
2401;BME280;1211;43.200;27.914;2023-02-22T12:52:55;101097.97;;;13.62;nan
2401;BME280;1211;43.200;27.914;2023-02-22T12:55:23;101102.09;;;13.56;nan
2401;BME280;1211;43.200;27.914;2023-02-22T12:57:52;101084.63;;;13.43;nan
2401;BME280;1211;43.200;27.914;2023-02-22T13:00:25;101107.28;;;13.37;nan
2401;BME280;1211;43.200;27.914;2023-02-22T13:02:55;101113.50;;;13.34;nan
2401;BME280;1211;43.200;27.914;2023-02-22T13:05:24;101107.16;;;13.12;nan
2401;BME280;1211;43.200;27.914;2023-02-22T13:07:59;101124.28;;;13.27;nan
2401;BME280;1211;43.200;27.914;2023-02-22T13:13:13;101133.00;;;13.37;nan
2401;BME280;1211;43.200;27.914;2023-02-22T13:15:47;101119.56;;;13.27;nan
2401;BME280;1211;43.200;27.914;2023-02-22T13:18:19;101132.31;;;13.19;nan
2401;BME280;1211;43.200;27.914;2023-02-22T13:20:51;101134.94;;;13.37;nan
2401;BME280;1211;43.200;27.914;2023-02-22T13:23:24;101138.19;;;13.39;nan
2401;BME280;1211;43.200;27.914;2023-02-22T13:25:57;101138.53;;;13.37;nan
2401;BME280;1211;43.200;27.914;2023-02-22T13:28:32;101126.72;;;13.49;nan
2401;BME280;1211;43.200;27.914;2023-02-22T13:33:52;101127.13;;;13.39;nan
2401;BME280;1211;43.200;27.914;2023-02-22T13:36:35;101130.38;;;13.41;nan
2401;BME280;1211;43.200;27.914;2023-02-22T13:42:06;100764.19;;;11.05;nan
2401;BME280;1211;43.200;27.914;2023-02-22T13:47:28;101139.53;;;13.33;nan
2401;BME280;1211;43.200;27.914;2023-02-22T13:50:07;101143.97;;;13.25;nan
2401;BME280;1211;43.200;27.914;2023-02-22T13:52:44;101152.66;;;13.44;nan
2401;BME280;1211;43.200;27.914;2023-02-22T13:55:14;101153.16;;;13.17;nan
2401;BME280;1211;43.200;27.914;2023-02-22T13:57:47;101072.34;;;12.82;nan
2401;BME280;1211;43.200;27.914;2023-02-22T14:00:22;101151.28;;;13.00;nan
2401;BME280;1211;43.200;27.914;2023-02-22T14:02:57;101146.16;;;13.11;nan
2401;BME280;1211;43.200;27.914;2023-02-22T14:11:02;101153.34;;;13.03;nan
2401;BME280;1211;43.200;27.914;2023-02-22T14:13:30;101157.56;;;13.09;nan
2401;BME280;1211;43.200;27.914;2023-02-22T14:16:19;101164.38;;;12.83;nan
2401;BME280;1211;43.200;27.914;2023-02-22T14:18:47;101164.19;;;12.88;nan
2401;BME280;1211;43.200;27.914;2023-02-22T14:21:15;101153.44;;;12.86;nan
2401;BME280;1211;43.200;27.914;2023-02-22T14:23:43;101156.69;;;12.88;nan
2401;BME280;1211;43.200;27.914;2023-02-22T14:26:14;101172.69;;;12.74;nan
2401;BME280;1211;43.200;27.914;2023-02-22T14:28:44;101184.81;;;12.90;nan
2401;BME280;1211;43.200;27.914;2023-02-22T14:31:15;101197.88;;;12.81;nan
2401;BME280;1211;43.200;27.914;2023-02-22T14:33:50;101161.63;;;12.74;nan
2401;BME280;1211;43.200;27.914;2023-02-22T14:36:18;101134.41;;;12.55;nan
2401;BME280;1211;43.200;27.914;2023-02-22T14:38:46;100940.97;;;12.05;nan
2401;BME280;1211;43.200;27.914;2023-02-22T14:41:15;101142.09;;;13.08;nan
2401;BME280;1211;43.200;27.914;2023-02-22T14:43:43;101138.31;;;13.42;nan
2401;BME280;1211;43.200;27.914;2023-02-22T14:46:21;101032.69;;;12.78;nan
2401;BME280;1211;43.200;27.914;2023-02-22T14:48:49;101146.78;;;13.46;nan
2401;BME280;1211;43.200;27.914;2023-02-22T14:51:18;101170.63;;;13.80;nan
2401;BME280;1211;43.200;27.914;2023-02-22T14:53:47;101185.47;;;13.75;nan
2401;BME280;1211;43.200;27.914;2023-02-22T14:56:18;101170.88;;;13.87;nan
2401;BME280;1211;43.200;27.914;2023-02-22T14:58:48;101191.09;;;13.99;nan
2401;BME280;1211;43.200;27.914;2023-02-22T15:01:24;101145.56;;;13.76;nan
2401;BME280;1211;43.200;27.914;2023-02-22T15:03:54;101176.28;;;13.63;nan
2401;BME280;1211;43.200;27.914;2023-02-22T15:06:24;101133.22;;;13.53;nan
2401;BME280;1211;43.200;27.914;2023-02-22T15:09:04;101191.81;;;13.96;nan
2401;BME280;1211;43.200;27.914;2023-02-22T15:11:32;101193.44;;;13.97;nan
2401;BME280;1211;43.200;27.914;2023-02-22T15:14:00;101167.63;;;13.43;nan
2401;BME280;1211;43.200;27.914;2023-02-22T15:16:27;101206.81;;;13.75;nan
2401;BME280;1211;43.200;27.914;2023-02-22T15:18:56;101198.50;;;13.25;nan
2401;BME280;1211;43.200;27.914;2023-02-22T15:21:26;101197.69;;;12.86;nan
2401;BME280;1211;43.200;27.914;2023-02-22T15:23:53;101207.84;;;12.65;nan
2401;BME280;1211;43.200;27.914;2023-02-22T15:26:22;101196.25;;;11.82;nan
2401;BME280;1211;43.200;27.914;2023-02-22T15:28:55;101212.59;;;11.44;nan
2401;BME280;1211;43.200;27.914;2023-02-22T15:31:24;101202.13;;;11.15;nan
2401;BME280;1211;43.200;27.914;2023-02-22T15:33:51;101194.84;;;11.19;nan
2401;BME280;1211;43.200;27.914;2023-02-22T15:36:20;101183.19;;;11.31;nan
2401;BME280;1211;43.200;27.914;2023-02-22T15:38:47;101194.22;;;11.31;nan
2401;BME280;1211;43.200;27.914;2023-02-22T15:41:20;101186.75;;;11.31;nan
2401;BME280;1211;43.200;27.914;2023-02-22T15:44:04;101215.97;;;11.32;nan
2401;BME280;1211;43.200;27.914;2023-02-22T15:46:31;101206.78;;;11.06;nan
2401;BME280;1211;43.200;27.914;2023-02-22T15:49:05;101204.59;;;11.25;nan
2401;BME280;1211;43.200;27.914;2023-02-22T15:51:32;101221.94;;;11.17;nan
2401;BME280;1211;43.200;27.914;2023-02-22T15:54:00;101212.19;;;11.11;nan
2401;BME280;1211;43.200;27.914;2023-02-22T15:56:30;101217.81;;;11.06;nan
2401;BME280;1211;43.200;27.914;2023-02-22T15:59:01;101214.06;;;10.93;nan
2401;BME280;1211;43.200;27.914;2023-02-22T16:01:30;101225.69;;;10.90;nan
2401;BME280;1211;43.200;27.914;2023-02-22T16:04:02;101226.59;;;11.08;nan
2401;BME280;1211;43.200;27.914;2023-02-22T16:06:30;101229.31;;;10.99;nan
2401;BME280;1211;43.200;27.914;2023-02-22T16:09:00;101230.22;;;10.86;nan
2401;BME280;1211;43.200;27.914;2023-02-22T16:11:33;101246.75;;;10.86;nan
2401;BME280;1211;43.200;27.914;2023-02-22T16:14:03;101231.53;;;10.89;nan
2401;BME280;1211;43.200;27.914;2023-02-22T16:16:32;101215.78;;;10.81;nan
2401;BME280;1211;43.200;27.914;2023-02-22T16:21:49;101244.91;;;10.73;nan
2401;BME280;1211;43.200;27.914;2023-02-22T16:24:24;101260.22;;;10.88;nan
2401;BME280;1211;43.200;27.914;2023-02-22T16:27:00;101254.56;;;10.62;nan
2401;BME280;1211;43.200;27.914;2023-02-22T16:29:28;101243.03;;;10.82;nan
2401;BME280;1211;43.200;27.914;2023-02-22T16:31:56;101267.34;;;10.58;nan
2401;BME280;1211;43.200;27.914;2023-02-22T16:34:23;101254.56;;;10.62;nan
2401;BME280;1211;43.200;27.914;2023-02-22T16:36:50;101242.44;;;10.71;nan
2401;BME280;1211;43.200;27.914;2023-02-22T16:39:18;101274.16;;;10.83;nan
2401;BME280;1211;43.200;27.914;2023-02-22T16:41:46;101268.78;;;10.55;nan
2401;BME280;1211;43.200;27.914;2023-02-22T16:44:13;101280.59;;;10.56;nan
2401;BME280;1211;43.200;27.914;2023-02-22T16:46:41;101265.97;;;10.47;nan
2401;BME280;1211;43.200;27.914;2023-02-22T16:49:10;101289.25;;;10.41;nan
2401;BME280;1211;43.200;27.914;2023-02-22T16:51:38;101284.56;;;10.41;nan
2401;BME280;1211;43.200;27.914;2023-02-22T16:54:08;101304.53;;;10.47;nan
2401;BME280;1211;43.200;27.914;2023-02-22T16:56:36;101257.72;;;10.24;nan
2401;BME280;1211;43.200;27.914;2023-02-22T16:59:07;101304.66;;;10.42;nan
2401;BME280;1211;43.200;27.914;2023-02-22T17:01:34;101266.59;;;10.44;nan
2401;BME280;1211;43.200;27.914;2023-02-22T17:04:01;101267.22;;;10.41;nan
2401;BME280;1211;43.200;27.914;2023-02-22T17:06:30;101281.69;;;10.46;nan
2401;BME280;1211;43.200;27.914;2023-02-22T17:08:57;101311.97;;;10.46;nan
2401;BME280;1211;43.200;27.914;2023-02-22T17:11:24;101295.38;;;10.60;nan
2401;BME280;1211;43.200;27.914;2023-02-22T17:13:51;101289.06;;;10.59;nan
2401;BME280;1211;43.200;27.914;2023-02-22T17:16:17;101295.84;;;10.53;nan
2401;BME280;1211;43.200;27.914;2023-02-22T17:18:44;101301.81;;;10.55;nan
2401;BME280;1211;43.200;27.914;2023-02-22T17:21:11;101300.94;;;10.68;nan
2401;BME280;1211;43.200;27.914;2023-02-22T17:23:39;101301.81;;;10.55;nan
2401;BME280;1211;43.200;27.914;2023-02-22T17:26:08;101296.06;;;10.65;nan
2401;BME280;1211;43.200;27.914;2023-02-22T17:28:38;101297.94;;;10.56;nan
2401;BME280;1211;43.200;27.914;2023-02-22T17:31:05;101293.19;;;10.48;nan
2401;BME280;1211;43.200;27.914;2023-02-22T17:33:33;101298.69;;;10.48;nan
2401;BME280;1211;43.200;27.914;2023-02-22T17:36:01;101301.13;;;10.50;nan
2401;BME280;1211;43.200;27.914;2023-02-22T17:38:29;101303.75;;;10.55;nan
2401;BME280;1211;43.200;27.914;2023-02-22T17:40:58;101296.97;;;10.52;nan
2401;BME280;1211;43.200;27.914;2023-02-22T17:43:25;101295.72;;;10.58;nan
2401;BME280;1211;43.200;27.914;2023-02-22T17:45:53;101293.44;;;10.38;nan
2401;BME280;1211;43.200;27.914;2023-02-22T17:48:20;101298.59;;;10.53;nan
2401;BME280;1211;43.200;27.914;2023-02-22T17:50:47;101287.19;;;10.46;nan
2401;BME280;1211;43.200;27.914;2023-02-22T17:53:15;101310.84;;;10.47;nan
2401;BME280;1211;43.200;27.914;2023-02-22T17:55:45;101299.44;;;10.40;nan
2401;BME280;1211;43.200;27.914;2023-02-22T17:58:14;101297.34;;;10.59;nan
2401;BME280;1211;43.200;27.914;2023-02-22T18:00:41;101297.38;;;10.46;nan
2401;BME280;1211;43.200;27.914;2023-02-22T18:03:09;101302.47;;;10.52;nan
2401;BME280;1211;43.200;27.914;2023-02-22T18:05:37;101289.81;;;10.51;nan
2401;BME280;1211;43.200;27.914;2023-02-22T18:08:04;101294.34;;;10.47;nan
2401;BME280;1211;43.200;27.914;2023-02-22T18:10:31;101302.63;;;10.56;nan
2401;BME280;1211;43.200;27.914;2023-02-22T18:12:58;101309.13;;;10.60;nan
2401;BME280;1211;43.200;27.914;2023-02-22T18:15:27;101293.50;;;10.69;nan
2401;BME280;1211;43.200;27.914;2023-02-22T18:17:54;101276.66;;;10.70;nan
2401;BME280;1211;43.200;27.914;2023-02-22T18:20:21;101290.50;;;10.57;nan
2401;BME280;1211;43.200;27.914;2023-02-22T18:22:55;101290.63;;;10.74;nan
2401;BME280;1211;43.200;27.914;2023-02-22T18:25:22;101296.44;;;10.72;nan
2401;BME280;1211;43.200;27.914;2023-02-22T18:27:49;101288.97;;;10.73;nan
2401;BME280;1211;43.200;27.914;2023-02-22T18:30:17;101298.94;;;10.60;nan
2401;BME280;1211;43.200;27.914;2023-02-22T18:32:46;101299.31;;;10.67;nan
2401;BME280;1211;43.200;27.914;2023-02-22T18:35:12;101281.16;;;10.66;nan
2401;BME280;1211;43.200;27.914;2023-02-22T18:37:39;101240.44;;;10.32;nan
2401;BME280;1211;43.200;27.914;2023-02-22T18:56:25;101307.00;;;10.79;nan
2401;BME280;1211;43.200;27.914;2023-02-22T18:58:54;101305.81;;;10.71;nan
2401;BME280;1211;43.200;27.914;2023-02-22T19:01:21;101298.72;;;10.70;nan
2401;BME280;1211;43.200;27.914;2023-02-22T19:03:48;101291.81;;;10.82;nan
2401;BME280;1211;43.200;27.914;2023-02-22T19:06:16;101306.56;;;10.86;nan
2401;BME280;1211;43.200;27.914;2023-02-22T19:08:44;101302.69;;;10.87;nan
2401;BME280;1211;43.200;27.914;2023-02-22T19:11:11;101318.56;;;10.90;nan
2401;BME280;1211;43.200;27.914;2023-02-22T19:13:43;101316.09;;;10.80;nan
2401;BME280;1211;43.200;27.914;2023-02-22T19:16:11;101310.81;;;10.92;nan
2401;BME280;1211;43.200;27.914;2023-02-22T19:18:38;101089.22;;;9.61;nan
2401;BME280;1211;43.200;27.914;2023-02-22T19:21:06;101286.75;;;10.53;nan
2401;BME280;1211;43.200;27.914;2023-02-22T19:23:34;101287.00;;;10.65;nan
2401;BME280;1211;43.200;27.914;2023-02-22T19:26:01;101320.22;;;10.91;nan
2401;BME280;1211;43.200;27.914;2023-02-22T19:28:27;101323.09;;;10.86;nan
2401;BME280;1211;43.200;27.914;2023-02-22T19:31:09;101330.13;;;10.69;nan
2401;BME280;1211;43.200;27.914;2023-02-22T19:33:36;101347.22;;;10.80;nan
2401;BME280;1211;43.200;27.914;2023-02-22T19:36:03;101342.09;;;10.87;nan
2401;BME280;1211;43.200;27.914;2023-02-22T19:38:30;101333.13;;;10.82;nan
2401;BME280;1211;43.200;27.914;2023-02-22T19:40:57;101348.84;;;10.81;nan
2401;BME280;1211;43.200;27.914;2023-02-22T19:43:23;101330.41;;;10.90;nan
2401;BME280;1211;43.200;27.914;2023-02-22T19:45:50;101338.38;;;10.92;nan
2401;BME280;1211;43.200;27.914;2023-02-22T19:48:18;101343.72;;;10.88;nan
2401;BME280;1211;43.200;27.914;2023-02-22T19:50:45;101342.56;;;10.67;nan
2401;BME280;1211;43.200;27.914;2023-02-22T19:53:14;101309.59;;;10.53;nan
2401;BME280;1211;43.200;27.914;2023-02-22T19:55:41;101306.38;;;10.38;nan
2401;BME280;1211;43.200;27.914;2023-02-22T19:58:07;101347.09;;;10.63;nan
2401;BME280;1211;43.200;27.914;2023-02-22T20:00:34;101331.94;;;10.74;nan
2401;BME280;1211;43.200;27.914;2023-02-22T20:03:01;101345.16;;;10.86;nan
2401;BME280;1211;43.200;27.914;2023-02-22T20:05:32;101309.34;;;10.63;nan
2401;BME280;1211;43.200;27.914;2023-02-22T20:08:01;101344.69;;;10.92;nan
2401;BME280;1211;43.200;27.914;2023-02-22T20:10:28;101280.06;;;10.45;nan
2401;BME280;1211;43.200;27.914;2023-02-22T20:12:54;101339.94;;;10.84;nan
2401;BME280;1211;43.200;27.914;2023-02-22T20:15:21;101230.63;;;10.18;nan
2401;BME280;1211;43.200;27.914;2023-02-22T20:17:48;101316.16;;;10.66;nan
2401;BME280;1211;43.200;27.914;2023-02-22T20:20:15;101216.97;;;10.13;nan
2401;BME280;1211;43.200;27.914;2023-02-22T20:22:44;101349.78;;;10.99;nan
2401;BME280;1211;43.200;27.914;2023-02-22T20:25:10;101361.03;;;11.11;nan
2401;BME280;1211;43.200;27.914;2023-02-22T20:27:37;101353.09;;;11.18;nan
2401;BME280;1211;43.200;27.914;2023-02-22T20:30:04;101338.09;;;11.02;nan
2401;BME280;1211;43.200;27.914;2023-02-22T20:32:32;101342.63;;;10.98;nan
2401;BME280;1211;43.200;27.914;2023-02-22T20:34:59;101359.88;;;11.12;nan
2401;BME280;1211;43.200;27.914;2023-02-22T20:37:26;101354.38;;;11.12;nan
2401;BME280;1211;43.200;27.914;2023-02-22T20:39:54;101360.41;;;10.92;nan
2401;BME280;1211;43.200;27.914;2023-02-22T20:42:21;101344.50;;;10.44;nan
2401;BME280;1211;43.200;27.914;2023-02-22T20:44:48;101342.13;;;10.73;nan
2401;BME280;1211;43.200;27.914;2023-02-22T20:47:14;101349.66;;;10.59;nan
2401;BME280;1211;43.200;27.914;2023-02-22T20:49:41;101354.50;;;10.54;nan
2401;BME280;1211;43.200;27.914;2023-02-22T20:52:08;101346.31;;;10.49;nan
2401;BME280;1211;43.200;27.914;2023-02-22T20:54:35;101357.88;;;10.37;nan
2401;BME280;1211;43.200;27.914;2023-02-22T20:57:03;101356.00;;;10.24;nan
2401;BME280;1211;43.200;27.914;2023-02-22T20:59:32;101349.13;;;10.35;nan
2401;BME280;1211;43.200;27.914;2023-02-22T21:01:59;101347.38;;;10.39;nan
2401;BME280;1211;43.200;27.914;2023-02-22T21:04:25;101357.16;;;10.45;nan
2401;BME280;1211;43.200;27.914;2023-02-22T21:06:56;101352.06;;;10.39;nan
2401;BME280;1211;43.200;27.914;2023-02-22T21:09:25;101366.81;;;10.07;nan
2401;BME280;1211;43.200;27.914;2023-02-22T21:11:52;101357.34;;;10.13;nan
2401;BME280;1211;43.200;27.914;2023-02-22T21:14:20;101351.94;;;10.08;nan
2401;BME280;1211;43.200;27.914;2023-02-22T21:16:48;101354.78;;;10.03;nan
2401;BME280;1211;43.200;27.914;2023-02-22T21:19:16;101364.41;;;9.78;nan
2401;BME280;1211;43.200;27.914;2023-02-22T21:21:49;101367.75;;;9.75;nan
2401;BME280;1211;43.200;27.914;2023-02-22T21:24:19;101369.09;;;9.77;nan
2401;BME280;1211;43.200;27.914;2023-02-22T21:26:45;101338.53;;;9.79;nan
2401;BME280;1211;43.200;27.914;2023-02-22T21:29:12;101337.91;;;9.82;nan
2401;BME280;1211;43.200;27.914;2023-02-22T21:31:41;101346.44;;;9.80;nan
2401;BME280;1211;43.200;27.914;2023-02-22T21:34:08;101334.84;;;9.70;nan
2401;BME280;1211;43.200;27.914;2023-02-22T21:36:36;101346.16;;;9.41;nan
2401;BME280;1211;43.200;27.914;2023-02-22T21:39:04;101339.66;;;9.37;nan
2401;BME280;1211;43.200;27.914;2023-02-22T21:41:42;101335.06;;;9.46;nan
2401;BME280;1211;43.200;27.914;2023-02-22T21:44:09;101343.72;;;9.39;nan
2401;BME280;1211;43.200;27.914;2023-02-22T21:46:35;101335.28;;;9.36;nan
2401;BME280;1211;43.200;27.914;2023-02-22T21:49:03;101338.34;;;9.48;nan
2401;BME280;1211;43.200;27.914;2023-02-22T21:51:31;101333.84;;;9.52;nan
2401;BME280;1211;43.200;27.914;2023-02-22T21:53:58;101346.88;;;9.60;nan
2401;BME280;1211;43.200;27.914;2023-02-22T21:56:26;101335.38;;;9.31;nan
2401;BME280;1211;43.200;27.914;2023-02-22T21:58:54;101342.38;;;9.23;nan
2401;BME280;1211;43.200;27.914;2023-02-22T22:01:23;101332.63;;;9.31;nan
2401;BME280;1211;43.200;27.914;2023-02-22T22:03:52;101338.41;;;9.16;nan
2401;BME280;1211;43.200;27.914;2023-02-22T22:06:21;101340.31;;;9.01;nan
2401;BME280;1211;43.200;27.914;2023-02-22T22:08:47;101335.91;;;8.87;nan
2401;BME280;1211;43.200;27.914;2023-02-22T22:11:14;101345.75;;;8.88;nan
2401;BME280;1211;43.200;27.914;2023-02-22T22:13:42;101340.91;;;8.98;nan
2401;BME280;1211;43.200;27.914;2023-02-22T22:16:10;101349.84;;;8.90;nan
2401;BME280;1211;43.200;27.914;2023-02-22T22:18:39;101332.75;;;8.93;nan
2401;BME280;1211;43.200;27.914;2023-02-22T22:21:07;101334.47;;;8.89;nan
2401;BME280;1211;43.200;27.914;2023-02-22T22:23:37;101353.28;;;8.82;nan
2401;BME280;1211;43.200;27.914;2023-02-22T22:26:04;101350.22;;;8.84;nan
2401;BME280;1211;43.200;27.914;2023-02-22T22:28:35;101342.91;;;8.93;nan
2401;BME280;1211;43.200;27.914;2023-02-22T22:31:02;101345.81;;;9.01;nan
2401;BME280;1211;43.200;27.914;2023-02-22T22:33:29;101344.25;;;8.95;nan
2401;BME280;1211;43.200;27.914;2023-02-22T22:35:56;101345.81;;;8.69;nan
2401;BME280;1211;43.200;27.914;2023-02-22T22:38:23;101357.00;;;8.73;nan
2401;BME280;1211;43.200;27.914;2023-02-22T22:40:52;101353.28;;;8.82;nan
2401;BME280;1211;43.200;27.914;2023-02-22T22:43:19;101351.00;;;8.71;nan
2401;BME280;1211;43.200;27.914;2023-02-22T22:45:45;101342.28;;;8.82;nan
2401;BME280;1211;43.200;27.914;2023-02-22T22:48:12;101336.59;;;8.79;nan
2401;BME280;1211;43.200;27.914;2023-02-22T22:50:39;101338.53;;;8.78;nan
2401;BME280;1211;43.200;27.914;2023-02-22T22:53:10;101341.22;;;8.64;nan
2401;BME280;1211;43.200;27.914;2023-02-22T22:55:38;101345.16;;;8.58;nan
2401;BME280;1211;43.200;27.914;2023-02-22T22:58:07;101345.84;;;8.32;nan